sensor_id;sensor_type;location;lat;lon;timestamp;pressure;altitude;pressure_sealevel;temperature;humidity
61906;BME280;47863;55.766;37.672;2023-06-26T00:02:12;99777.03;;;18.61;49.24
61906;BME280;47863;55.766;37.672;2023-06-26T00:04:38;99774.72;;;18.65;49.38
61906;BME280;47863;55.766;37.672;2023-06-26T00:07:04;99777.84;;;18.69;49.38
61906;BME280;47863;55.766;37.672;2023-06-26T00:09:29;99769.25;;;18.72;49.39
61906;BME280;47863;55.766;37.672;2023-06-26T00:11:55;99765.28;;;18.74;49.40
61906;BME280;47863;55.766;37.672;2023-06-26T00:14:21;99775.69;;;18.77;49.21
61906;BME280;47863;55.766;37.672;2023-06-26T00:16:47;99773.00;;;18.77;49.30
61906;BME280;47863;55.766;37.672;2023-06-26T00:19:15;99771.34;;;18.76;49.12
61906;BME280;47863;55.766;37.672;2023-06-26T00:21:41;99752.19;;;18.65;49.39
61906;BME280;47863;55.766;37.672;2023-06-26T00:24:12;99778.66;;;18.82;49.47
61906;BME280;47863;55.766;37.672;2023-06-26T00:26:38;99773.44;;;18.74;49.42
61906;BME280;47863;55.766;37.672;2023-06-26T00:29:04;99752.81;;;18.67;49.63
61906;BME280;47863;55.766;37.672;2023-06-26T00:31:30;99767.59;;;18.71;49.67
61906;BME280;47863;55.766;37.672;2023-06-26T00:33:55;99764.84;;;18.77;49.77
61906;BME280;47863;55.766;37.672;2023-06-26T00:36:21;99777.59;;;18.77;49.82
61906;BME280;47863;55.766;37.672;2023-06-26T00:38:51;99750.09;;;18.60;50.18
61906;BME280;47863;55.766;37.672;2023-06-26T00:41:17;99767.56;;;18.77;50.07
61906;BME280;47863;55.766;37.672;2023-06-26T00:43:43;99771.34;;;18.76;50.11
61906;BME280;47863;55.766;37.672;2023-06-26T00:46:10;99774.06;;;18.70;50.31
61906;BME280;47863;55.766;37.672;2023-06-26T00:48:37;99762.84;;;18.66;50.30
61906;BME280;47863;55.766;37.672;2023-06-26T00:51:02;99747.63;;;18.52;50.38
61906;BME280;47863;55.766;37.672;2023-06-26T00:53:28;99768.88;;;18.68;50.42
61906;BME280;47863;55.766;37.672;2023-06-26T00:55:54;99742.22;;;18.52;50.70
61906;BME280;47863;55.766;37.672;2023-06-26T00:58:23;99768.47;;;18.65;50.85
61906;BME280;47863;55.766;37.672;2023-06-26T01:00:50;99746.19;;;18.49;50.49
61906;BME280;47863;55.766;37.672;2023-06-26T01:03:16;99748.06;;;18.49;50.79
61906;BME280;47863;55.766;37.672;2023-06-26T01:05:42;99737.84;;;18.44;51.15
61906;BME280;47863;55.766;37.672;2023-06-26T01:08:12;99755.97;;;18.50;51.21
61906;BME280;47863;55.766;37.672;2023-06-26T01:10:38;99763.91;;;18.58;51.07
61906;BME280;47863;55.766;37.672;2023-06-26T01:13:04;99725.78;;;18.33;51.13
61906;BME280;47863;55.766;37.672;2023-06-26T01:15:30;99761.59;;;18.55;51.14
61906;BME280;47863;55.766;37.672;2023-06-26T01:17:57;99762.06;;;18.52;50.92
61906;BME280;47863;55.766;37.672;2023-06-26T01:20:36;99761.19;;;18.52;51.70
61906;BME280;47863;55.766;37.672;2023-06-26T01:28:30;99749.75;;;18.36;51.37
61906;BME280;47863;55.766;37.672;2023-06-26T01:30:57;99747.69;;;18.38;51.32
61906;BME280;47863;55.766;37.672;2023-06-26T01:33:23;99762.88;;;18.46;51.41
61906;BME280;47863;55.766;37.672;2023-06-26T01:35:49;99737.47;;;18.34;51.60
61906;BME280;47863;55.766;37.672;2023-06-26T01:38:17;99758.50;;;18.45;51.52
61906;BME280;47863;55.766;37.672;2023-06-26T01:40:43;99756.00;;;18.43;51.62
61906;BME280;47863;55.766;37.672;2023-06-26T01:46:34;99755.19;;;18.43;51.41
61906;BME280;47863;55.766;37.672;2023-06-26T01:49:09;99760.59;;;18.43;51.86
61906;BME280;47863;55.766;37.672;2023-06-26T01:51:54;99745.19;;;18.30;51.80
61906;BME280;47863;55.766;37.672;2023-06-26T01:54:21;99758.09;;;18.41;51.76
61906;BME280;47863;55.766;37.672;2023-06-26T01:56:52;99757.47;;;18.39;52.19
61906;BME280;47863;55.766;37.672;2023-06-26T01:59:19;99775.84;;;18.37;52.05
61906;BME280;47863;55.766;37.672;2023-06-26T02:01:46;99753.56;;;18.22;52.25
61906;BME280;47863;55.766;37.672;2023-06-26T02:04:12;99759.41;;;18.26;52.15
61906;BME280;47863;55.766;37.672;2023-06-26T02:06:38;99770.00;;;18.34;52.35
61906;BME280;47863;55.766;37.672;2023-06-26T02:09:04;99777.13;;;18.35;52.61
61906;BME280;47863;55.766;37.672;2023-06-26T02:11:29;99767.28;;;18.34;52.53
61906;BME280;47863;55.766;37.672;2023-06-26T02:13:55;99768.53;;;18.38;52.67
61906;BME280;47863;55.766;37.672;2023-06-26T02:16:20;99768.53;;;18.38;52.53
61906;BME280;47863;55.766;37.672;2023-06-26T02:18:46;99771.44;;;18.36;52.60
61906;BME280;47863;55.766;37.672;2023-06-26T02:21:13;99767.50;;;18.32;52.80
61906;BME280;47863;55.766;37.672;2023-06-26T02:23:38;99753.56;;;18.22;52.83
61906;BME280;47863;55.766;37.672;2023-06-26T02:26:04;99763.75;;;18.33;52.84
61906;BME280;47863;55.766;37.672;2023-06-26T02:28:30;99771.88;;;18.40;52.97
61906;BME280;47863;55.766;37.672;2023-06-26T02:30:56;99773.34;;;18.42;52.97
61906;BME280;47863;55.766;37.672;2023-06-26T02:33:22;99774.78;;;18.45;53.06
61906;BME280;47863;55.766;37.672;2023-06-26T02:35:48;99784.38;;;18.48;53.01
61906;BME280;47863;55.766;37.672;2023-06-26T02:38:15;99757.28;;;18.34;53.22
61906;BME280;47863;55.766;37.672;2023-06-26T02:40:41;99764.34;;;18.42;53.25
61906;BME280;47863;55.766;37.672;2023-06-26T02:43:06;99776.84;;;18.50;53.26
61906;BME280;47863;55.766;37.672;2023-06-26T02:45:32;99771.88;;;18.47;53.21
61906;BME280;47863;55.766;37.672;2023-06-26T02:47:57;99774.97;;;18.50;53.34
61906;BME280;47863;55.766;37.672;2023-06-26T02:50:23;99783.09;;;18.50;53.46
61906;BME280;47863;55.766;37.672;2023-06-26T02:52:49;99764.34;;;18.42;53.47
61906;BME280;47863;55.766;37.672;2023-06-26T02:55:18;99769.97;;;18.47;53.49
61906;BME280;47863;55.766;37.672;2023-06-26T02:57:46;99772.50;;;18.49;53.50
61906;BME280;47863;55.766;37.672;2023-06-26T03:00:12;99770.56;;;18.56;53.42
61906;BME280;47863;55.766;37.672;2023-06-26T03:02:38;99754.53;;;18.48;53.56
61906;BME280;47863;55.766;37.672;2023-06-26T03:05:04;99769.53;;;18.57;53.59
61906;BME280;47863;55.766;37.672;2023-06-26T03:07:30;99757.06;;;18.42;53.78
61906;BME280;47863;55.766;37.672;2023-06-26T03:09:55;99772.66;;;18.54;53.69
61906;BME280;47863;55.766;37.672;2023-06-26T03:12:21;99755.59;;;18.47;53.85
61906;BME280;47863;55.766;37.672;2023-06-26T03:14:47;99770.56;;;18.56;53.91
61906;BME280;47863;55.766;37.672;2023-06-26T03:17:12;99766.38;;;18.60;53.70
61906;BME280;47863;55.766;37.672;2023-06-26T03:19:38;99753.06;;;18.52;53.91
61906;BME280;47863;55.766;37.672;2023-06-26T03:22:04;99762.63;;;18.61;53.96
61906;BME280;47863;55.766;37.672;2023-06-26T03:24:29;99777.19;;;18.73;53.88
61906;BME280;47863;55.766;37.672;2023-06-26T03:26:55;99766.34;;;18.73;53.87
61906;BME280;47863;55.766;37.672;2023-06-26T03:29:21;99755.06;;;18.70;53.76
61906;BME280;47863;55.766;37.672;2023-06-26T03:31:46;99774.44;;;18.87;53.76
61906;BME280;47863;55.766;37.672;2023-06-26T03:34:12;99776.91;;;18.95;53.28
61906;BME280;47863;55.766;37.672;2023-06-26T03:36:38;99768.97;;;19.00;53.63
61906;BME280;47863;55.766;37.672;2023-06-26T03:39:03;99766.22;;;19.07;53.47
61906;BME280;47863;55.766;37.672;2023-06-26T03:41:30;99774.91;;;19.22;53.35
61906;BME280;47863;55.766;37.672;2023-06-26T03:43:55;99753.38;;;19.20;53.04
61906;BME280;47863;55.766;37.672;2023-06-26T03:46:22;99779.72;;;19.52;52.87
61906;BME280;47863;55.766;37.672;2023-06-26T03:48:48;99759.13;;;19.62;52.66
61906;BME280;47863;55.766;37.672;2023-06-26T03:51:14;99770.22;;;19.93;52.39
61906;BME280;47863;55.766;37.672;2023-06-26T03:53:40;99768.59;;;20.10;52.02
61906;BME280;47863;55.766;37.672;2023-06-26T03:56:05;99772.03;;;20.24;51.75
61906;BME280;47863;55.766;37.672;2023-06-26T03:58:31;99769.31;;;20.24;51.24
61906;BME280;47863;55.766;37.672;2023-06-26T04:00:57;99772.34;;;20.34;51.18
61906;BME280;47863;55.766;37.672;2023-06-26T04:03:23;99767.88;;;20.40;51.31
61906;BME280;47863;55.766;37.672;2023-06-26T04:05:49;99731.44;;;20.23;51.11
61906;BME280;47863;55.766;37.672;2023-06-26T04:08:15;99716.66;;;20.18;51.09
61906;BME280;47863;55.766;37.672;2023-06-26T04:10:40;99768.31;;;20.55;51.17
61906;BME280;47863;55.766;37.672;2023-06-26T04:13:06;99761.22;;;20.54;51.19
61906;BME280;47863;55.766;37.672;2023-06-26T04:15:32;99761.91;;;20.50;51.44
61906;BME280;47863;55.766;37.672;2023-06-26T04:17:57;99756.97;;;20.58;51.24
61906;BME280;47863;55.766;37.672;2023-06-26T04:20:23;99758.59;;;20.66;51.08
61906;BME280;47863;55.766;37.672;2023-06-26T04:22:49;99746.50;;;20.62;50.83
61906;BME280;47863;55.766;37.672;2023-06-26T04:25:14;99767.44;;;20.80;50.74
61906;BME280;47863;55.766;37.672;2023-06-26T04:27:40;99761.28;;;20.85;50.80
61906;BME280;47863;55.766;37.672;2023-06-26T04:30:06;99765.44;;;20.87;50.54
61906;BME280;47863;55.766;37.672;2023-06-26T04:32:33;99765.44;;;20.87;50.39
61906;BME280;47863;55.766;37.672;2023-06-26T04:34:59;99750.03;;;20.81;50.25
61906;BME280;47863;55.766;37.672;2023-06-26T04:37:25;99716.34;;;20.64;50.41
61906;BME280;47863;55.766;37.672;2023-06-26T04:39:51;99753.41;;;20.95;50.47
61906;BME280;47863;55.766;37.672;2023-06-26T04:42:16;99756.06;;;21.02;50.35
61906;BME280;47863;55.766;37.672;2023-06-26T04:44:42;99751.69;;;21.12;50.27
61906;BME280;47863;55.766;37.672;2023-06-26T04:47:08;99756.59;;;21.22;50.07
61906;BME280;47863;55.766;37.672;2023-06-26T04:49:34;99757.13;;;21.31;49.97
61906;BME280;47863;55.766;37.672;2023-06-26T04:52:00;99752.97;;;21.40;49.59
61906;BME280;47863;55.766;37.672;2023-06-26T04:54:26;99726.22;;;21.37;49.54
61906;BME280;47863;55.766;37.672;2023-06-26T04:56:53;99745.00;;;21.57;49.36
61906;BME280;47863;55.766;37.672;2023-06-26T04:59:18;99723.88;;;21.52;49.62
61906;BME280;47863;55.766;37.672;2023-06-26T05:01:44;99738.59;;;21.63;49.55
61906;BME280;47863;55.766;37.672;2023-06-26T05:04:14;99736.22;;;21.55;49.14
61906;BME280;47863;55.766;37.672;2023-06-26T05:06:40;99739.31;;;21.58;49.49
61906;BME280;47863;55.766;37.672;2023-06-26T05:09:06;99743.09;;;21.57;49.20
61906;BME280;47863;55.766;37.672;2023-06-26T05:11:32;99745.38;;;21.61;49.27
61906;BME280;47863;55.766;37.672;2023-06-26T05:13:58;99726.75;;;21.57;49.34
61906;BME280;47863;55.766;37.672;2023-06-26T05:16:23;99751.53;;;21.79;49.28
61906;BME280;47863;55.766;37.672;2023-06-26T05:18:49;99745.50;;;21.89;48.62
61906;BME280;47863;55.766;37.672;2023-06-26T05:21:15;99749.31;;;22.12;48.71
61906;BME280;47863;55.766;37.672;2023-06-26T05:23:41;99745.50;;;22.25;48.26
61906;BME280;47863;55.766;37.672;2023-06-26T05:26:09;99747.75;;;22.40;48.47
61906;BME280;47863;55.766;37.672;2023-06-26T05:28:36;99750.44;;;22.63;48.00
61906;BME280;47863;55.766;37.672;2023-06-26T05:31:03;99741.56;;;22.85;47.60
61906;BME280;47863;55.766;37.672;2023-06-26T05:33:31;99740.59;;;23.03;47.73
61906;BME280;47863;55.766;37.672;2023-06-26T05:35:59;99719.94;;;22.95;47.57
61906;BME280;47863;55.766;37.672;2023-06-26T05:38:25;99743.84;;;23.16;47.30
61906;BME280;47863;55.766;37.672;2023-06-26T05:40:51;99752.13;;;23.22;47.21
61906;BME280;47863;55.766;37.672;2023-06-26T05:43:17;99742.94;;;23.28;46.96
61906;BME280;47863;55.766;37.672;2023-06-26T05:45:48;99727.88;;;23.25;46.62
61906;BME280;47863;55.766;37.672;2023-06-26T05:48:14;99739.50;;;23.32;46.57
61906;BME280;47863;55.766;37.672;2023-06-26T05:50:40;99742.66;;;23.41;46.27
61906;BME280;47863;55.766;37.672;2023-06-26T05:53:07;99739.75;;;23.48;46.31
61906;BME280;47863;55.766;37.672;2023-06-26T05:55:33;99744.47;;;23.69;45.68
61906;BME280;47863;55.766;37.672;2023-06-26T05:57:59;99744.25;;;23.88;45.40
61906;BME280;47863;55.766;37.672;2023-06-26T06:00:27;99737.47;;;23.90;45.12
61906;BME280;47863;55.766;37.672;2023-06-26T06:02:53;99747.53;;;24.07;45.41
61906;BME280;47863;55.766;37.672;2023-06-26T06:05:22;99741.06;;;24.13;44.69
61906;BME280;47863;55.766;37.672;2023-06-26T06:07:48;99722.22;;;24.17;44.35
61906;BME280;47863;55.766;37.672;2023-06-26T06:10:14;99744.31;;;24.49;43.91
61906;BME280;47863;55.766;37.672;2023-06-26T06:12:39;99722.91;;;24.46;43.63
61906;BME280;47863;55.766;37.672;2023-06-26T06:15:06;99691.53;;;24.31;43.58
61906;BME280;47863;55.766;37.672;2023-06-26T06:17:31;99709.63;;;24.54;42.96
61906;BME280;47863;55.766;37.672;2023-06-26T06:19:57;99732.44;;;24.82;42.47
61906;BME280;47863;55.766;37.672;2023-06-26T06:22:23;99726.34;;;24.80;41.87
61906;BME280;47863;55.766;37.672;2023-06-26T06:24:50;99736.09;;;24.93;40.47
61906;BME280;47863;55.766;37.672;2023-06-26T06:27:16;99716.84;;;24.88;40.71
61906;BME280;47863;55.766;37.672;2023-06-26T06:29:42;99733.13;;;25.00;40.89
61906;BME280;47863;55.766;37.672;2023-06-26T06:32:08;99708.13;;;24.91;40.41
61906;BME280;47863;55.766;37.672;2023-06-26T06:34:33;99736.28;;;25.36;39.69
61906;BME280;47863;55.766;37.672;2023-06-26T06:36:59;99716.06;;;25.47;39.54
61906;BME280;47863;55.766;37.672;2023-06-26T06:39:25;99730.38;;;25.86;39.68
61906;BME280;47863;55.766;37.672;2023-06-26T06:41:51;99676.25;;;25.77;39.28
61906;BME280;47863;55.766;37.672;2023-06-26T06:44:16;99709.50;;;26.28;38.01
61906;BME280;47863;55.766;37.672;2023-06-26T06:46:42;99726.66;;;26.50;37.97
61906;BME280;47863;55.766;37.672;2023-06-26T06:49:08;99721.78;;;26.63;37.45
61906;BME280;47863;55.766;37.672;2023-06-26T06:51:34;99733.13;;;26.82;37.57
61906;BME280;47863;55.766;37.672;2023-06-26T06:54:00;99722.69;;;26.89;37.00
61906;BME280;47863;55.766;37.672;2023-06-26T06:56:26;99729.81;;;26.85;36.64
61906;BME280;47863;55.766;37.672;2023-06-26T06:58:51;99726.53;;;26.83;37.01
61906;BME280;47863;55.766;37.672;2023-06-26T07:01:17;99719.66;;;26.85;36.92
61906;BME280;47863;55.766;37.672;2023-06-26T07:03:43;99719.72;;;26.96;37.11
61906;BME280;47863;55.766;37.672;2023-06-26T07:06:08;99715.06;;;27.12;36.36
61906;BME280;47863;55.766;37.672;2023-06-26T07:08:34;99721.69;;;27.57;35.80
61906;BME280;47863;55.766;37.672;2023-06-26T07:11:00;99718.13;;;27.92;35.61
61906;BME280;47863;55.766;37.672;2023-06-26T07:13:26;99720.50;;;28.29;34.86
61906;BME280;47863;55.766;37.672;2023-06-26T07:15:52;99698.38;;;28.65;33.57
61906;BME280;47863;55.766;37.672;2023-06-26T07:18:18;99711.41;;;29.78;32.91
61906;BME280;47863;55.766;37.672;2023-06-26T07:20:43;99695.44;;;31.29;30.69
61906;BME280;47863;55.766;37.672;2023-06-26T07:23:09;99723.84;;;33.11;29.28
61906;BME280;47863;55.766;37.672;2023-06-26T07:25:35;99715.94;;;34.83;28.14
61906;BME280;47863;55.766;37.672;2023-06-26T07:28:01;99711.31;;;36.69;26.74
61906;BME280;47863;55.766;37.672;2023-06-26T07:30:27;99711.59;;;38.43;25.58
61906;BME280;47863;55.766;37.672;2023-06-26T07:32:52;99717.41;;;40.16;23.99
61906;BME280;47863;55.766;37.672;2023-06-26T07:35:18;99709.56;;;41.08;22.96
61906;BME280;47863;55.766;37.672;2023-06-26T07:37:44;99707.25;;;41.95;22.33
61906;BME280;47863;55.766;37.672;2023-06-26T07:40:10;99718.75;;;42.59;21.12
61906;BME280;47863;55.766;37.672;2023-06-26T07:42:36;99716.31;;;43.15;20.55
61906;BME280;47863;55.766;37.672;2023-06-26T07:45:02;99679.00;;;44.04;19.48
61906;BME280;47863;55.766;37.672;2023-06-26T07:47:36;99718.63;;;45.50;18.40
61906;BME280;47863;55.766;37.672;2023-06-26T07:50:01;99705.38;;;46.16;17.98
61906;BME280;47863;55.766;37.672;2023-06-26T07:52:30;99719.13;;;46.46;17.29
61906;BME280;47863;55.766;37.672;2023-06-26T07:54:56;99717.84;;;46.76;16.45
61906;BME280;47863;55.766;37.672;2023-06-26T07:57:22;99710.13;;;46.80;16.18
61906;BME280;47863;55.766;37.672;2023-06-26T07:59:47;99714.59;;;46.70;16.35
61906;BME280;47863;55.766;37.672;2023-06-26T08:02:13;99710.63;;;46.46;15.76
61906;BME280;47863;55.766;37.672;2023-06-26T08:04:38;99700.09;;;46.43;15.12
61906;BME280;47863;55.766;37.672;2023-06-26T08:07:04;99701.66;;;46.83;14.90
61906;BME280;47863;55.766;37.672;2023-06-26T08:09:31;99680.34;;;47.38;14.23
61906;BME280;47863;55.766;37.672;2023-06-26T08:11:57;99674.56;;;48.09;13.45
61906;BME280;47863;55.766;37.672;2023-06-26T08:14:22;99704.00;;;48.71;13.30
61906;BME280;47863;55.766;37.672;2023-06-26T08:16:49;99686.06;;;48.77;13.24
61906;BME280;47863;55.766;37.672;2023-06-26T08:19:15;99705.69;;;48.64;12.61
61906;BME280;47863;55.766;37.672;2023-06-26T08:21:42;99703.72;;;48.58;12.56
61906;BME280;47863;55.766;37.672;2023-06-26T08:24:09;99697.50;;;48.29;12.34
61906;BME280;47863;55.766;37.672;2023-06-26T08:26:35;99705.19;;;47.09;13.29
61906;BME280;47863;55.766;37.672;2023-06-26T08:29:01;99702.44;;;45.47;14.01
61906;BME280;47863;55.766;37.672;2023-06-26T08:31:34;99710.28;;;43.16;15.12
61906;BME280;47863;55.766;37.672;2023-06-26T08:34:00;99687.88;;;40.89;15.64
61906;BME280;47863;55.766;37.672;2023-06-26T08:36:26;99692.41;;;39.35;16.50
61906;BME280;47863;55.766;37.672;2023-06-26T08:38:52;99695.75;;;38.59;16.52
61906;BME280;47863;55.766;37.672;2023-06-26T08:41:17;99685.69;;;37.97;16.58
61906;BME280;47863;55.766;37.672;2023-06-26T08:43:43;99681.88;;;38.26;16.61
61906;BME280;47863;55.766;37.672;2023-06-26T08:46:09;99680.34;;;38.65;16.04
61906;BME280;47863;55.766;37.672;2023-06-26T08:48:35;99687.00;;;39.42;15.94
61906;BME280;47863;55.766;37.672;2023-06-26T08:51:12;99690.22;;;39.28;15.73
61906;BME280;47863;55.766;37.672;2023-06-26T08:53:57;99681.81;;;39.72;15.33
61906;BME280;47863;55.766;37.672;2023-06-26T08:56:25;99686.41;;;40.60;15.19
61906;BME280;47863;55.766;37.672;2023-06-26T08:58:53;99681.94;;;40.08;15.61
61906;BME280;47863;55.766;37.672;2023-06-26T09:01:20;99674.69;;;39.75;15.80
61906;BME280;47863;55.766;37.672;2023-06-26T09:03:46;99672.53;;;41.22;14.84
61906;BME280;47863;55.766;37.672;2023-06-26T09:06:12;99673.84;;;43.27;13.79
61906;BME280;47863;55.766;37.672;2023-06-26T09:08:37;99672.75;;;43.43;13.53
61906;BME280;47863;55.766;37.672;2023-06-26T09:11:03;99668.47;;;42.31;14.54
61906;BME280;47863;55.766;37.672;2023-06-26T09:13:30;99667.22;;;42.29;14.15
61906;BME280;47863;55.766;37.672;2023-06-26T09:15:57;99679.72;;;43.18;14.11
61906;BME280;47863;55.766;37.672;2023-06-26T09:18:22;99682.06;;;44.32;12.80
61906;BME280;47863;55.766;37.672;2023-06-26T09:20:48;99676.28;;;44.14;13.49
61906;BME280;47863;55.766;37.672;2023-06-26T09:23:15;99673.94;;;44.27;13.27
61906;BME280;47863;55.766;37.672;2023-06-26T09:25:41;99656.75;;;45.38;12.33
61906;BME280;47863;55.766;37.672;2023-06-26T09:28:08;99671.41;;;45.76;12.51
61906;BME280;47863;55.766;37.672;2023-06-26T09:30:35;99664.06;;;44.48;12.56
61906;BME280;47863;55.766;37.672;2023-06-26T09:33:18;99670.38;;;42.50;14.08
61906;BME280;47863;55.766;37.672;2023-06-26T09:35:45;99662.31;;;40.08;14.91
61906;BME280;47863;55.766;37.672;2023-06-26T09:38:14;99662.78;;;38.16;15.38
61906;BME280;47863;55.766;37.672;2023-06-26T09:40:43;99663.88;;;36.69;16.60
61906;BME280;47863;55.766;37.672;2023-06-26T09:43:13;99672.34;;;35.66;17.16
61906;BME280;47863;55.766;37.672;2023-06-26T09:45:39;99651.63;;;34.85;17.01
61906;BME280;47863;55.766;37.672;2023-06-26T09:48:06;99659.44;;;34.08;17.77
61906;BME280;47863;55.766;37.672;2023-06-26T09:50:37;99661.16;;;33.32;18.04
61906;BME280;47863;55.766;37.672;2023-06-26T09:53:12;99657.31;;;32.83;18.32
61906;BME280;47863;55.766;37.672;2023-06-26T09:55:44;99648.47;;;32.58;18.56
61906;BME280;47863;55.766;37.672;2023-06-26T09:58:11;99631.34;;;32.01;18.95
61906;BME280;47863;55.766;37.672;2023-06-26T10:00:42;99620.22;;;31.73;19.53
61906;BME280;47863;55.766;37.672;2023-06-26T10:03:11;99645.88;;;32.48;19.00
61906;BME280;47863;55.766;37.672;2023-06-26T10:05:39;99635.81;;;33.56;18.24
61906;BME280;47863;55.766;37.672;2023-06-26T10:08:05;99639.97;;;34.56;17.91
61906;BME280;47863;55.766;37.672;2023-06-26T10:10:35;99639.91;;;34.22;18.34
61906;BME280;47863;55.766;37.672;2023-06-26T10:13:04;99637.47;;;34.29;18.06
61906;BME280;47863;55.766;37.672;2023-06-26T10:15:33;99650.97;;;33.73;18.77
61906;BME280;47863;55.766;37.672;2023-06-26T10:18:00;99637.25;;;33.23;18.89
61906;BME280;47863;55.766;37.672;2023-06-26T10:20:26;99643.84;;;33.35;19.00
61906;BME280;47863;55.766;37.672;2023-06-26T10:22:55;99644.38;;;33.15;18.64
61906;BME280;47863;55.766;37.672;2023-06-26T10:25:23;99651.53;;;32.93;18.93
61906;BME280;47863;55.766;37.672;2023-06-26T10:27:57;99647.41;;;32.40;19.31
61906;BME280;47863;55.766;37.672;2023-06-26T10:30:30;99641.47;;;31.92;19.77
61906;BME280;47863;55.766;37.672;2023-06-26T10:32:57;99632.97;;;32.30;19.22
61906;BME280;47863;55.766;37.672;2023-06-26T10:35:24;99641.91;;;33.98;18.48
61906;BME280;47863;55.766;37.672;2023-06-26T10:37:50;99647.03;;;35.15;17.67
61906;BME280;47863;55.766;37.672;2023-06-26T10:40:25;99627.91;;;34.87;18.21
61906;BME280;47863;55.766;37.672;2023-06-26T10:43:05;99635.31;;;33.77;18.64
61906;BME280;47863;55.766;37.672;2023-06-26T10:45:33;99631.69;;;32.64;19.45
61906;BME280;47863;55.766;37.672;2023-06-26T10:47:59;99635.13;;;31.45;20.75
61906;BME280;47863;55.766;37.672;2023-06-26T10:50:29;99618.47;;;30.79;21.15
61906;BME280;47863;55.766;37.672;2023-06-26T10:53:21;99622.69;;;31.89;20.37
61906;BME280;47863;55.766;37.672;2023-06-26T10:55:59;99623.13;;;34.04;18.97
61906;BME280;47863;55.766;37.672;2023-06-26T10:58:41;99623.13;;;36.26;17.52
61906;BME280;47863;55.766;37.672;2023-06-26T11:03:37;99624.91;;;39.40;16.09
61906;BME280;47863;55.766;37.672;2023-06-26T11:06:14;99622.22;;;40.39;15.51
61906;BME280;47863;55.766;37.672;2023-06-26T11:08:47;99617.66;;;41.09;14.73
61906;BME280;47863;55.766;37.672;2023-06-26T11:11:14;99608.56;;;41.58;15.18
61906;BME280;47863;55.766;37.672;2023-06-26T11:13:40;99619.19;;;41.91;14.60
61906;BME280;47863;55.766;37.672;2023-06-26T11:16:06;99600.72;;;41.05;15.14
61906;BME280;47863;55.766;37.672;2023-06-26T11:18:33;99607.41;;;39.91;15.89
61906;BME280;47863;55.766;37.672;2023-06-26T11:21:08;99602.66;;;39.31;15.89
61906;BME280;47863;55.766;37.672;2023-06-26T11:23:36;99615.06;;;38.90;16.26
61906;BME280;47863;55.766;37.672;2023-06-26T11:26:19;99599.94;;;38.38;15.79
61906;BME280;47863;55.766;37.672;2023-06-26T11:28:49;99618.00;;;38.53;16.11
61906;BME280;47863;55.766;37.672;2023-06-26T11:31:27;99609.00;;;38.59;15.88
61906;BME280;47863;55.766;37.672;2023-06-26T11:33:54;99602.97;;;38.57;16.03
61906;BME280;47863;55.766;37.672;2023-06-26T11:36:25;99600.28;;;38.36;15.59
61906;BME280;47863;55.766;37.672;2023-06-26T11:38:59;99606.59;;;37.96;16.10
61906;BME280;47863;55.766;37.672;2023-06-26T11:41:30;99604.66;;;37.51;15.94
61906;BME280;47863;55.766;37.672;2023-06-26T11:43:56;99595.56;;;37.08;16.35
61906;BME280;47863;55.766;37.672;2023-06-26T11:46:25;99577.78;;;36.80;16.62
61906;BME280;47863;55.766;37.672;2023-06-26T11:48:50;99582.03;;;36.98;16.70
61906;BME280;47863;55.766;37.672;2023-06-26T11:51:17;99572.28;;;37.50;16.42
61906;BME280;47863;55.766;37.672;2023-06-26T11:53:44;99584.72;;;38.11;15.90
61906;BME280;47863;55.766;37.672;2023-06-26T11:56:11;99570.41;;;38.53;15.33
61906;BME280;47863;55.766;37.672;2023-06-26T12:01:37;99567.41;;;39.14;15.07
61906;BME280;47863;55.766;37.672;2023-06-26T12:04:05;99570.00;;;39.07;15.14
61906;BME280;47863;55.766;37.672;2023-06-26T12:06:36;99560.78;;;38.38;15.19
61906;BME280;47863;55.766;37.672;2023-06-26T12:09:05;99568.63;;;37.83;15.31
61906;BME280;47863;55.766;37.672;2023-06-26T12:11:32;99570.34;;;37.50;15.94
61906;BME280;47863;55.766;37.672;2023-06-26T12:13:59;99566.28;;;36.81;16.39
61906;BME280;47863;55.766;37.672;2023-06-26T12:16:27;99561.09;;;36.29;17.05
61906;BME280;47863;55.766;37.672;2023-06-26T12:18:58;99559.97;;;35.62;17.24
61906;BME280;47863;55.766;37.672;2023-06-26T12:21:49;99546.41;;;34.87;17.80
61906;BME280;47863;55.766;37.672;2023-06-26T12:24:19;99552.50;;;33.88;18.25
61906;BME280;47863;55.766;37.672;2023-06-26T12:26:47;99538.38;;;32.82;19.21
61906;BME280;47863;55.766;37.672;2023-06-26T12:29:18;99537.25;;;31.96;19.99
61906;BME280;47863;55.766;37.672;2023-06-26T12:31:53;99536.59;;;31.30;20.28
61906;BME280;47863;55.766;37.672;2023-06-26T12:34:23;99555.16;;;30.96;20.60
61906;BME280;47863;55.766;37.672;2023-06-26T12:36:50;99554.22;;;30.68;20.84
61906;BME280;47863;55.766;37.672;2023-06-26T12:39:20;99544.44;;;30.57;20.93
61906;BME280;47863;55.766;37.672;2023-06-26T12:41:52;99545.84;;;30.54;21.17
61906;BME280;47863;55.766;37.672;2023-06-26T12:47:03;99543.59;;;30.18;21.49
61906;BME280;47863;55.766;37.672;2023-06-26T12:49:39;99514.75;;;29.87;21.66
61906;BME280;47863;55.766;37.672;2023-06-26T12:52:07;99532.53;;;29.75;21.81
61906;BME280;47863;55.766;37.672;2023-06-26T12:54:34;99532.41;;;29.61;21.96
61906;BME280;47863;55.766;37.672;2023-06-26T12:56:59;99535.41;;;29.65;21.78
61906;BME280;47863;55.766;37.672;2023-06-26T12:59:25;99533.53;;;29.60;21.69
61906;BME280;47863;55.766;37.672;2023-06-26T13:01:51;99533.06;;;29.53;21.78
61906;BME280;47863;55.766;37.672;2023-06-26T13:04:17;99529.13;;;29.35;21.59
61906;BME280;47863;55.766;37.672;2023-06-26T13:06:43;99530.44;;;29.14;21.82
61906;BME280;47863;55.766;37.672;2023-06-26T13:09:09;99534.56;;;28.82;22.21